Time;durP1;ratioP1;P1;durP2;ratioP2;P2;SDS_P1;SDS_P2;PMS_P1;PMS_P2;Temp;Humidity;BMP_temperature;BMP_pressure;BME280_temperature;BME280_humidity;BME280_pressure;Samples;Min_cycle;Max_cycle;Signal;HPM_P1;HPM_P2
2022/04/04 00:00:46;;;;;;;6.38;5.43;;;2.80;99.90;;;;;;4960306;28;89076;-31
2022/04/04 00:03:12;;;;;;;10.80;5.85;;;2.80;99.90;;;;;;4961130;28;90220;-36
2022/04/04 00:05:38;;;;;;;8.70;5.88;;;2.70;99.90;;;;;;4960380;28;90684;-32
2022/04/04 00:08:07;;;;;;;13.50;6.55;;;2.80;99.90;;;;;;4960172;28;89147;-33
2022/04/04 00:10:34;;;;;;;7.30;6.07;;;2.70;99.90;;;;;;4961057;28;90217;-33
2022/04/04 00:12:59;;;;;;;8.27;5.63;;;2.70;99.90;;;;;;4960742;28;91357;-34
2022/04/04 00:15:25;;;;;;;7.90;6.35;;;2.70;99.90;;;;;;4960506;28;89854;-33
2022/04/04 00:17:50;;;;;;;10.10;6.07;;;2.60;99.90;;;;;;4960321;28;89655;-34
2022/04/04 00:20:16;;;;;;;8.15;5.60;;;2.60;99.90;;;;;;4959968;28;90051;-34
2022/04/04 00:22:43;;;;;;;5.93;5.20;;;2.60;99.90;;;;;;5022232;22;90202;-33
2022/04/04 00:25:09;;;;;;;7.60;5.75;;;2.60;99.90;;;;;;5000462;28;89976;-34
2022/04/04 00:27:34;;;;;;;8.02;5.60;;;2.60;99.90;;;;;;5000116;28;91504;-37
2022/04/04 00:30:01;;;;;;;7.10;5.85;;;2.60;99.90;;;;;;5000577;28;89264;-32
2022/04/04 00:32:26;;;;;;;7.70;5.43;;;2.60;99.90;;;;;;5000364;28;90051;-31
2022/04/04 00:34:52;;;;;;;9.52;6.13;;;2.60;99.90;;;;;;4999179;28;89703;-32
2022/04/04 00:37:18;;;;;;;8.18;6.63;;;2.60;99.90;;;;;;5000525;28;89576;-35
2022/04/04 00:39:44;;;;;;;7.85;5.65;;;2.60;99.90;;;;;;5000200;28;89264;-36
2022/04/04 00:42:09;;;;;;;6.35;5.43;;;2.60;99.90;;;;;;5000595;28;90138;-32
2022/04/04 00:44:35;;;;;;;9.00;6.32;;;2.60;99.90;;;;;;4999153;28;89785;-35
2022/04/04 00:47:01;;;;;;;10.20;6.90;;;2.60;99.90;;;;;;4999717;28;89051;-32
2022/04/04 00:49:27;;;;;;;6.97;6.05;;;2.60;99.90;;;;;;5000443;28;89072;-33
2022/04/04 00:51:52;;;;;;;9.30;5.95;;;2.60;99.90;;;;;;4999401;28;90197;-32
2022/04/04 00:54:18;;;;;;;11.48;6.18;;;2.60;99.90;;;;;;5000388;28;89556;-37
2022/04/04 00:56:46;;;;;;;8.85;6.53;;;2.60;99.90;;;;;;4999584;28;90634;-32
2022/04/04 00:59:15;;;;;;;10.77;6.28;;;2.60;99.90;;;;;;4999213;28;87674;-34
2022/04/04 01:01:41;;;;;;;8.57;6.90;;;2.60;99.90;;;;;;4999038;28;91455;-35
2022/04/04 01:04:11;;;;;;;12.57;6.18;;;2.60;99.90;;;;;;5000598;28;89619;-33
2022/04/04 01:06:38;;;;;;;6.55;5.95;;;2.60;99.90;;;;;;4999154;28;89659;-36
2022/04/04 01:09:04;;;;;;;6.65;5.75;;;2.60;99.90;;;;;;4999382;28;90762;-34
2022/04/04 01:11:29;;;;;;;8.20;5.43;;;2.60;99.90;;;;;;4998995;28;96657;-32
2022/04/04 01:13:55;;;;;;;10.35;6.45;;;2.70;99.90;;;;;;4999777;28;89820;-36
2022/04/04 01:16:21;;;;;;;10.30;6.05;;;2.60;99.90;;;;;;4999616;28;89773;-34
2022/04/04 01:18:47;;;;;;;6.78;5.25;;;2.70;99.90;;;;;;4999191;28;88712;-33
2022/04/04 01:21:12;;;;;;;9.70;6.55;;;2.70;99.90;;;;;;4999466;28;89410;-33
2022/04/04 01:23:41;;;;;;;11.00;8.00;;;2.70;99.90;;;;;;4998529;28;88715;-32
2022/04/04 01:26:09;;;;;;;7.90;7.10;;;2.80;99.90;;;;;;4981212;28;88095;-36
2022/04/04 01:28:34;;;;;;;7.57;6.80;;;2.80;99.90;;;;;;4999731;28;88807;-37
2022/04/04 01:31:00;;;;;;;10.52;7.95;;;2.80;99.90;;;;;;4998427;28;90305;-33
2022/04/04 01:33:26;;;;;;;9.43;8.32;;;2.90;99.90;;;;;;4998793;28;90698;-32
2022/04/04 01:35:52;;;;;;;10.57;8.52;;;2.90;99.90;;;;;;4999265;28;90302;-32
2022/04/04 01:38:18;;;;;;;15.05;9.45;;;2.90;99.90;;;;;;4999860;28;88462;-35
2022/04/04 01:40:44;;;;;;;10.90;9.43;;;3.00;99.90;;;;;;4999355;28;90634;-33
2022/04/04 01:43:09;;;;;;;11.50;10.30;;;3.00;99.90;;;;;;4998782;28;91028;-34
2022/04/04 01:48:19;;;;;;;12.80;10.30;;;3.10;99.90;;;;;;4998450;28;88022;-32
2022/04/04 01:50:45;;;;;;;11.43;10.23;;;3.10;99.90;;;;;;4998219;28;90072;-32
2022/04/04 01:53:26;;;;;;;13.25;11.65;;;3.20;99.90;;;;;;4998931;28;89650;-32
2022/04/04 01:55:53;;;;;;;16.85;12.00;;;3.20;99.90;;;;;;4998028;28;89613;-37
2022/04/04 01:58:19;;;;;;;16.98;12.90;;;3.30;99.90;;;;;;4998388;28;90131;-34
2022/04/04 02:00:45;;;;;;;15.27;12.38;;;3.30;99.90;;;;;;4997407;28;90402;-36
2022/04/04 02:03:10;;;;;;;16.45;13.65;;;3.30;99.90;;;;;;4998318;28;89624;-33
2022/04/04 02:05:36;;;;;;;13.93;12.45;;;3.30;99.90;;;;;;4997866;28;89317;-33
2022/04/04 02:08:03;;;;;;;13.57;11.88;;;3.30;99.90;;;;;;4998504;28;89478;-37
2022/04/04 02:10:29;;;;;;;16.65;14.05;;;3.30;99.90;;;;;;4998533;28;90566;-32
2022/04/04 02:12:54;;;;;;;17.05;12.13;;;3.30;99.90;;;;;;4996265;28;89394;-33
2022/04/04 02:15:20;;;;;;;18.45;13.07;;;3.20;99.90;;;;;;4998762;28;90063;-33
2022/04/04 02:17:45;;;;;;;15.32;12.80;;;3.20;99.90;;;;;;4997984;28;88129;-32
2022/04/04 02:20:11;;;;;;;23.73;14.75;;;3.30;99.90;;;;;;4997923;28;93011;-33
2022/04/04 02:22:37;;;;;;;17.60;13.07;;;3.20;99.90;;;;;;4996727;28;90400;-32
2022/04/04 02:25:03;;;;;;;15.23;12.05;;;3.30;99.90;;;;;;4997421;28;90610;-33
2022/04/04 02:27:29;;;;;;;19.73;13.85;;;3.30;99.90;;;;;;4999071;28;87985;-32
2022/04/04 02:29:57;;;;;;;15.88;14.10;;;3.30;99.90;;;;;;4997517;28;89608;-34
2022/04/04 02:32:22;;;;;;;16.67;14.00;;;3.30;99.90;;;;;;4998055;28;88954;-33
2022/04/04 02:34:48;;;;;;;15.15;13.68;;;3.40;99.90;;;;;;4997743;28;90203;-33
2022/04/04 02:37:14;;;;;;;15.80;13.32;;;3.40;99.90;;;;;;4997774;28;89168;-33
2022/04/04 02:39:40;;;;;;;14.48;12.50;;;3.40;99.90;;;;;;4997873;28;90373;-32
2022/04/04 02:42:06;;;;;;;15.60;13.52;;;3.40;99.90;;;;;;4997916;28;89575;-32
2022/04/04 02:44:32;;;;;;;13.98;12.60;;;3.40;99.90;;;;;;5000057;28;90051;-32
2022/04/04 02:46:58;;;;;;;15.80;13.35;;;3.40;99.90;;;;;;5000911;28;90055;-35
2022/04/04 02:49:24;;;;;;;15.35;13.60;;;3.50;99.90;;;;;;5000515;28;91435;-35
2022/04/04 02:51:52;;;;;;;18.25;15.32;;;3.50;99.90;;;;;;5000375;28;89736;-32
2022/04/04 02:54:17;;;;;;;17.40;15.10;;;3.50;99.90;;;;;;5001728;28;89331;-34
2022/04/04 02:56:43;;;;;;;21.77;14.80;;;3.50;99.90;;;;;;5000958;28;88541;-34
2022/04/04 02:59:09;;;;;;;16.73;13.73;;;3.50;99.90;;;;;;5000542;28;90287;-37
2022/04/04 03:01:38;;;;;;;15.27;13.77;;;3.50;99.90;;;;;;5000793;28;89811;-34
2022/04/04 03:04:04;;;;;;;17.40;14.40;;;3.50;99.90;;;;;;5000382;28;89961;-34
2022/04/04 03:06:29;;;;;;;16.63;13.48;;;3.60;99.90;;;;;;5000909;28;88280;-31
2022/04/04 03:08:55;;;;;;;17.50;15.65;;;3.70;99.90;;;;;;4999554;28;91881;-31
2022/04/04 03:11:21;;;;;;;27.00;16.35;;;3.60;99.90;;;;;;4981677;28;89659;-32
2022/04/04 03:13:47;;;;;;;23.42;15.32;;;3.70;99.90;;;;;;5000649;28;90096;-36
2022/04/04 03:16:14;;;;;;;18.83;15.57;;;3.60;99.90;;;;;;5000724;28;88565;-33
2022/04/04 03:18:40;;;;;;;17.70;15.63;;;3.70;99.90;;;;;;5000199;28;90036;-32
2022/04/04 03:21:06;;;;;;;22.90;16.38;;;3.70;99.90;;;;;;5000879;28;90881;-32
2022/04/04 03:23:33;;;;;;;22.00;16.42;;;3.70;99.90;;;;;;4981861;28;89153;-35
2022/04/04 03:25:59;;;;;;;22.85;17.05;;;3.70;99.90;;;;;;5000212;28;90213;-32
2022/04/04 03:28:25;;;;;;;18.58;16.33;;;3.70;99.90;;;;;;5000764;28;90306;-34
2022/04/04 03:30:51;;;;;;;19.38;15.75;;;3.70;99.90;;;;;;5000492;28;89707;-33
2022/04/04 03:33:18;;;;;;;22.10;15.13;;;3.80;99.90;;;;;;4999777;28;89571;-33
2022/04/04 03:35:43;;;;;;;21.35;16.70;;;3.80;99.90;;;;;;4999487;28;89795;-32
2022/04/04 03:38:11;;;;;;;25.13;17.13;;;3.80;99.90;;;;;;5000436;28;89628;-32
2022/04/04 03:40:37;;;;;;;22.75;17.30;;;3.80;99.90;;;;;;4999460;28;89604;-37
2022/04/04 03:43:03;;;;;;;20.48;16.45;;;3.80;99.90;;;;;;5000747;28;88654;-35
2022/04/04 03:45:30;;;;;;;20.85;16.60;;;3.80;99.90;;;;;;5000218;28;88516;-36
2022/04/04 03:47:56;;;;;;;24.73;18.65;;;3.90;99.90;;;;;;4999928;28;89444;-33
2022/04/04 03:50:24;;;;;;;18.92;16.90;;;3.90;99.90;;;;;;5000303;28;89725;-35
2022/04/04 03:52:55;;;;;;;16.58;14.57;;;3.90;99.90;;;;;;4981792;28;89316;-33
2022/04/04 03:55:23;;;;;;;23.33;17.25;;;3.90;99.90;;;;;;5000407;28;89152;-34
2022/04/04 03:57:50;;;;;;;20.83;15.68;;;3.90;99.90;;;;;;4999908;28;89461;-32
2022/04/04 04:00:17;;;;;;;22.20;18.85;;;3.90;99.90;;;;;;4999172;28;90791;-32
2022/04/04 04:02:43;;;;;;;19.20;17.10;;;4.00;99.90;;;;;;4999450;28;91390;-36
2022/04/04 04:05:09;;;;;;;22.55;19.15;;;3.90;99.90;;;;;;5000052;28;88983;-33
2022/04/04 04:07:34;;;;;;;21.85;15.45;;;4.00;99.90;;;;;;4999758;28;90150;-36
2022/04/04 04:10:00;;;;;;;19.33;17.23;;;4.00;99.90;;;;;;4999894;28;89075;-35
2022/04/04 04:12:27;;;;;;;19.73;16.98;;;4.00;99.90;;;;;;4999224;28;90360;-32
2022/04/04 04:14:53;;;;;;;20.73;16.05;;;4.10;99.90;;;;;;4999922;28;89150;-34
2022/04/04 04:17:21;;;;;;;23.30;17.42;;;4.10;99.90;;;;;;5000306;28;90682;-33
2022/04/04 04:22:31;;;;;;;18.50;16.15;;;4.10;99.90;;;;;;4998669;28;89201;-35
2022/04/04 04:24:58;;;;;;;23.60;16.58;;;4.10;99.90;;;;;;4999402;28;88927;-32
2022/04/04 04:27:24;;;;;;;20.83;17.67;;;4.10;99.90;;;;;;4999031;28;90197;-32
2022/04/04 04:29:49;;;;;;;23.13;18.15;;;4.10;99.90;;;;;;4999465;28;89558;-35
2022/04/04 04:32:15;;;;;;;23.17;17.92;;;4.20;99.90;;;;;;4999213;28;89824;-36
2022/04/04 04:34:46;;;;;;;21.30;17.88;;;4.10;99.90;;;;;;4999338;28;89463;-37
2022/04/04 04:37:15;;;;;;;20.98;17.58;;;4.10;99.90;;;;;;4998807;28;90220;-32
2022/04/04 04:39:40;;;;;;;24.75;18.05;;;4.10;99.90;;;;;;4998566;28;89724;-32
2022/04/04 04:42:06;;;;;;;20.98;18.67;;;4.20;99.90;;;;;;4999564;28;89568;-35
2022/04/04 04:44:32;;;;;;;22.67;17.13;;;4.20;99.90;;;;;;4999496;28;88582;-35
2022/04/04 04:46:57;;;;;;;24.58;19.17;;;4.20;99.90;;;;;;4999464;28;90108;-32
2022/04/04 04:49:25;;;;;;;26.23;18.67;;;4.10;99.90;;;;;;4998518;28;92136;-35
2022/04/04 04:51:52;;;;;;;20.02;16.35;;;4.10;99.90;;;;;;4980748;28;89796;-36
2022/04/04 04:54:18;;;;;;;20.35;18.08;;;4.10;99.90;;;;;;4999708;28;89973;-37
2022/04/04 04:56:44;;;;;;;20.38;17.83;;;4.10;99.90;;;;;;4998587;28;91139;-36
2022/04/04 04:59:09;;;;;;;19.85;17.80;;;4.10;99.90;;;;;;4998642;28;89792;-32
2022/04/04 05:01:35;;;;;;;24.17;19.63;;;4.00;99.90;;;;;;4997776;28;90384;-36
2022/04/04 05:04:01;;;;;;;23.42;19.65;;;4.10;99.90;;;;;;4999112;28;89618;-32
2022/04/04 05:06:27;;;;;;;23.25;18.38;;;4.00;99.90;;;;;;4998119;28;90211;-36
2022/04/04 05:08:55;;;;;;;25.00;20.05;;;4.00;99.90;;;;;;4998796;28;89491;-33
2022/04/04 05:11:21;;;;;;;26.37;18.77;;;4.10;99.90;;;;;;4998682;28;89029;-32
2022/04/04 05:13:47;;;;;;;22.48;19.65;;;4.10;99.90;;;;;;4997828;28;90125;-34
2022/04/04 05:16:14;;;;;;;22.45;20.15;;;4.10;99.90;;;;;;4999142;28;89963;-34
2022/04/04 05:18:43;;;;;;;24.83;19.50;;;4.10;99.90;;;;;;4998416;28;89568;-31
2022/04/04 05:21:09;;;;;;;21.02;18.42;;;4.10;99.90;;;;;;4998582;28;89739;-33
2022/04/04 05:23:36;;;;;;;24.33;18.35;;;4.10;99.90;;;;;;4998669;28;88838;-34
2022/04/04 05:26:01;;;;;;;25.10;19.98;;;4.20;99.90;;;;;;4998662;28;89193;-33
2022/04/04 05:28:27;;;;;;;19.08;17.08;;;4.20;99.90;;;;;;4998490;28;88799;-37
2022/04/04 05:30:52;;;;;;;22.52;18.05;;;4.30;99.90;;;;;;4999735;28;90358;-31
2022/04/04 05:33:18;;;;;;;23.65;19.10;;;4.30;99.90;;;;;;4916473;28;90216;-33
2022/04/04 05:35:43;;;;;;;20.55;18.38;;;4.30;99.90;;;;;;4994667;28;89690;-32
2022/04/04 05:38:09;;;;;;;22.77;20.20;;;4.30;99.90;;;;;;4997540;28;89622;-32
2022/04/04 05:40:35;;;;;;;21.00;18.75;;;4.30;99.90;;;;;;4997820;28;89549;-35
2022/04/04 05:43:01;;;;;;;21.75;17.38;;;4.30;99.90;;;;;;4999360;28;88009;-32
2022/04/04 05:45:27;;;;;;;23.95;17.67;;;4.40;99.90;;;;;;4998101;28;90548;-35
2022/04/04 05:47:53;;;;;;;20.63;17.20;;;4.40;99.90;;;;;;4998596;28;89452;-33
2022/04/04 05:50:18;;;;;;;18.60;16.70;;;4.50;99.90;;;;;;4997891;28;89887;-34
2022/04/04 05:52:44;;;;;;;19.80;17.80;;;4.50;99.90;;;;;;4998390;28;88085;-36
2022/04/04 05:55:10;;;;;;;19.80;14.27;;;4.50;99.90;;;;;;4998895;28;90099;-35
2022/04/04 05:57:40;;;;;;;23.00;16.27;;;4.60;99.90;;;;;;4997605;28;89608;-31
2022/04/04 06:00:11;;;;;;;21.08;18.15;;;4.60;99.90;;;;;;4997523;28;89434;-33
2022/04/04 06:02:38;;;;;;;19.35;15.77;;;4.60;99.90;;;;;;4997397;28;88454;-35
2022/04/04 06:05:08;;;;;;;26.23;18.67;;;4.70;99.90;;;;;;4997886;28;90456;-34
2022/04/04 06:07:34;;;;;;;19.75;15.13;;;4.70;99.90;;;;;;4998057;28;90129;-32
2022/04/04 06:10:00;;;;;;;16.67;14.93;;;4.80;99.90;;;;;;4998500;28;89499;-33
2022/04/04 06:12:26;;;;;;;18.50;15.32;;;4.70;99.90;;;;;;4998231;28;88851;-33
2022/04/04 06:14:51;;;;;;;19.38;16.20;;;4.80;99.90;;;;;;4998501;28;89849;-32
2022/04/04 06:17:18;;;;;;;18.25;16.42;;;4.90;99.90;;;;;;4999289;28;89631;-31
2022/04/04 06:19:44;;;;;;;22.48;14.13;;;4.90;99.90;;;;;;5001137;28;89959;-34
2022/04/04 06:22:10;;;;;;;17.63;14.75;;;5.00;99.90;;;;;;5001372;28;88534;-35
2022/04/04 06:24:36;;;;;;;16.75;14.60;;;5.00;99.90;;;;;;5001409;28;91218;-34
2022/04/04 06:27:02;;;;;;;15.68;13.85;;;5.00;99.90;;;;;;4999290;28;90544;-35
2022/04/04 06:29:28;;;;;;;17.13;14.85;;;5.00;99.90;;;;;;4999983;28;89990;-33
2022/04/04 06:31:55;;;;;;;19.20;14.88;;;5.00;99.90;;;;;;4998923;28;89259;-32
2022/04/04 06:34:21;;;;;;;17.13;15.10;;;5.10;99.90;;;;;;4999998;28;90396;-34
2022/04/04 06:36:47;;;;;;;18.88;15.55;;;5.10;99.90;;;;;;4999250;28;88837;-35
2022/04/04 06:39:14;;;;;;;17.00;14.35;;;5.10;99.90;;;;;;4998813;28;88283;-35
2022/04/04 06:41:39;;;;;;;16.90;14.55;;;5.20;99.90;;;;;;4999214;28;88350;-33
2022/04/04 06:44:06;;;;;;;17.88;13.27;;;5.20;99.90;;;;;;4999024;28;92482;-32
2022/04/04 06:46:31;;;;;;;17.67;15.88;;;5.20;99.90;;;;;;4999428;28;89884;-35
2022/04/04 06:48:58;;;;;;;18.15;14.02;;;5.20;99.90;;;;;;4999335;28;89693;-33
2022/04/04 06:51:24;;;;;;;20.77;15.07;;;5.30;99.90;;;;;;4998784;28;88073;-34
2022/04/04 06:53:50;;;;;;;20.23;16.40;;;5.20;99.90;;;;;;4999377;28;90343;-35
2022/04/04 06:56:15;;;;;;;14.85;13.32;;;5.20;99.90;;;;;;4998848;28;90637;-34
2022/04/04 06:58:41;;;;;;;19.25;12.82;;;5.10;99.90;;;;;;4998960;28;88125;-33
2022/04/04 07:01:07;;;;;;;14.68;12.80;;;5.10;99.90;;;;;;4999446;28;88939;-34
2022/04/04 07:03:33;;;;;;;17.90;14.88;;;5.10;99.90;;;;;;4998956;28;90148;-36
2022/04/04 07:05:59;;;;;;;18.80;13.52;;;5.20;99.90;;;;;;4998926;28;90342;-34
2022/04/04 07:08:24;;;;;;;16.23;13.20;;;5.10;99.90;;;;;;4998909;28;90110;-34
2022/04/04 07:10:51;;;;;;;20.48;14.80;;;5.10;99.90;;;;;;4998803;28;89185;-35
2022/04/04 07:13:17;;;;;;;18.00;14.90;;;5.00;99.90;;;;;;4999007;28;90937;-32
2022/04/04 07:15:43;;;;;;;14.63;13.05;;;5.00;99.90;;;;;;4998145;28;91160;-36
2022/04/04 07:18:09;;;;;;;19.25;15.65;;;5.00;99.90;;;;;;4998611;28;91247;-32
2022/04/04 07:20:35;;;;;;;22.83;16.17;;;5.00;99.90;;;;;;4998495;28;88050;-34
2022/04/04 07:23:01;;;;;;;21.02;16.63;;;5.00;99.90;;;;;;4997792;28;90288;-32
2022/04/04 07:25:28;;;;;;;18.27;16.50;;;5.00;99.90;;;;;;4999180;28;88791;-34
2022/04/04 07:27:54;;;;;;;19.15;16.83;;;5.10;99.90;;;;;;4998220;28;91428;-32
2022/04/04 07:30:23;;;;;;;18.92;13.77;;;5.00;99.90;;;;;;4997443;28;87907;-33
2022/04/04 07:32:50;;;;;;;22.40;18.67;;;5.10;99.90;;;;;;4998069;28;90252;-36
2022/04/04 07:35:17;;;;;;;19.02;17.25;;;5.00;99.90;;;;;;4998706;28;89694;-36
2022/04/04 07:37:44;;;;;;;18.77;14.77;;;5.10;99.90;;;;;;4998253;28;90243;-33
2022/04/04 07:40:13;;;;;;;24.50;19.25;;;5.10;99.90;;;;;;4997893;28;90761;-36
2022/04/04 07:42:40;;;;;;;15.55;13.75;;;5.10;99.90;;;;;;4995670;28;90330;-33
2022/04/04 07:45:07;;;;;;;23.67;17.75;;;5.20;99.90;;;;;;4998138;28;89898;-32
2022/04/04 07:47:33;;;;;;;23.48;17.67;;;5.10;99.90;;;;;;4996895;28;90115;-32
2022/04/04 07:49:59;;;;;;;21.20;17.10;;;5.20;99.90;;;;;;4997541;28;88878;-36
2022/04/04 07:52:26;;;;;;;23.40;18.65;;;5.10;99.90;;;;;;4998397;28;89793;-36
2022/04/04 07:54:53;;;;;;;19.67;17.38;;;5.10;99.90;;;;;;4997872;28;89677;-32
2022/04/04 07:57:19;;;;;;;19.33;17.30;;;5.20;99.90;;;;;;4998312;28;89447;-35
2022/04/04 07:59:45;;;;;;;22.63;17.25;;;5.20;99.90;;;;;;4997882;28;88176;-33
2022/04/04 08:02:11;;;;;;;18.45;16.58;;;5.20;99.90;;;;;;4998406;28;90937;-35
2022/04/04 08:04:38;;;;;;;23.73;17.13;;;5.20;99.90;;;;;;4996772;28;90678;-32
2022/04/04 08:07:04;;;;;;;20.92;18.67;;;5.30;99.90;;;;;;4998042;28;90381;-32
2022/04/04 08:09:29;;;;;;;21.52;17.90;;;5.30;99.90;;;;;;4997768;28;89864;-32
2022/04/04 08:11:55;;;;;;;21.58;19.27;;;5.30;99.90;;;;;;4997043;28;90388;-36
2022/04/04 08:14:21;;;;;;;21.13;17.85;;;5.30;99.90;;;;;;4998392;28;88444;-33
2022/04/04 08:16:47;;;;;;;23.27;18.98;;;5.30;99.90;;;;;;4997420;28;89027;-34
2022/04/04 08:19:13;;;;;;;22.35;19.15;;;5.30;99.90;;;;;;4998369;28;87947;-32
2022/04/04 08:21:44;;;;;;;20.25;18.02;;;5.20;99.90;;;;;;4997452;28;89851;-35
2022/04/04 08:24:10;;;;;;;21.05;18.85;;;5.20;99.90;;;;;;4998388;28;88970;-32
2022/04/04 08:26:35;;;;;;;18.42;16.42;;;5.20;99.90;;;;;;4997162;28;90975;-30
2022/04/04 08:29:01;;;;;;;22.20;18.90;;;5.20;99.90;;;;;;4997393;28;89132;-33
2022/04/04 08:31:27;;;;;;;21.50;17.20;;;5.10;99.90;;;;;;4997586;28;90068;-35
2022/04/04 08:33:53;;;;;;;24.08;21.65;;;5.20;99.90;;;;;;4996563;28;89671;-35
2022/04/04 08:36:19;;;;;;;20.75;17.20;;;5.20;99.90;;;;;;4997831;28;89963;-34
2022/04/04 08:38:44;;;;;;;22.40;19.77;;;5.20;99.90;;;;;;4996604;28;88307;-32
2022/04/04 08:41:10;;;;;;;21.20;18.60;;;5.20;99.90;;;;;;4998103;28;90205;-33
2022/04/04 08:43:38;;;;;;;23.23;20.75;;;5.20;99.90;;;;;;4996569;28;89456;-34
2022/04/04 08:46:06;;;;;;;23.85;19.85;;;5.30;99.90;;;;;;4997178;28;89764;-31
2022/04/04 08:48:33;;;;;;;19.83;17.77;;;5.20;99.90;;;;;;4997187;28;89171;-35
2022/04/04 08:50:59;;;;;;;19.70;17.58;;;5.20;99.90;;;;;;4998090;28;90571;-34
2022/04/04 08:53:25;;;;;;;21.45;15.90;;;5.30;99.90;;;;;;4996808;28;91359;-34
2022/04/04 08:55:51;;;;;;;20.45;18.40;;;5.30;99.90;;;;;;4997167;28;90479;-33
2022/04/04 08:58:17;;;;;;;23.00;20.10;;;5.50;99.90;;;;;;4997034;28;88607;-33
2022/04/04 09:00:42;;;;;;;19.48;16.05;;;5.40;99.90;;;;;;4995305;28;89923;-35
2022/04/04 09:03:09;;;;;;;21.45;19.23;;;5.60;99.90;;;;;;4997213;28;89709;-35
2022/04/04 09:05:51;;;;;;;20.35;16.15;;;5.50;99.90;;;;;;4996618;28;89771;-36
2022/04/04 09:08:18;;;;;;;20.25;15.95;;;5.50;99.90;;;;;;4997862;28;89123;-34
2022/04/04 09:10:44;;;;;;;18.77;16.30;;;5.40;99.90;;;;;;4996710;28;90490;-35
2022/04/04 09:13:13;;;;;;;18.23;16.50;;;5.50;99.90;;;;;;4996650;28;89996;-36
2022/04/04 09:15:54;;;;;;;15.05;13.55;;;5.50;99.90;;;;;;4996786;28;89844;-36
2022/04/04 09:18:43;;;;;;;16.27;13.32;;;5.60;99.90;;;;;;4996141;28;89309;-32
2022/04/04 09:21:19;;;;;;;15.50;12.90;;;5.60;99.90;;;;;;4996923;28;89586;-33
2022/04/04 09:23:45;;;;;;;15.52;12.10;;;5.60;99.90;;;;;;4996078;28;89547;-35
2022/04/04 09:26:26;;;;;;;11.52;10.02;;;5.60;99.90;;;;;;4996811;28;91070;-33
2022/04/04 09:28:51;;;;;;;14.25;9.93;;;5.60;99.90;;;;;;4997076;28;88317;-32
2022/04/04 09:31:17;;;;;;;12.02;9.35;;;5.60;99.90;;;;;;4997784;28;91002;-34
2022/04/04 09:33:43;;;;;;;11.80;10.63;;;5.60;99.90;;;;;;4997690;28;89581;-33
2022/04/04 09:36:09;;;;;;;14.15;11.50;;;5.60;99.90;;;;;;4997247;28;89898;-34
2022/04/04 09:38:35;;;;;;;19.27;12.48;;;5.60;99.90;;;;;;4996042;28;88687;-36
2022/04/04 09:41:18;;;;;;;12.88;8.20;;;5.60;99.90;;;;;;4997332;28;88979;-33
2022/04/04 09:43:53;;;;;;;8.02;7.22;;;5.70;99.90;;;;;;4996319;28;90635;-31
2022/04/04 09:46:19;;;;;;;7.38;6.68;;;5.60;99.90;;;;;;4997482;28;90396;-33
2022/04/04 09:49:02;;;;;;;12.43;8.23;;;5.60;99.90;;;;;;4997077;28;88762;-35
2022/04/04 09:51:38;;;;;;;7.97;7.18;;;5.60;99.90;;;;;;4997611;28;88547;-33
2022/04/04 09:54:05;;;;;;;6.65;5.97;;;5.60;99.90;;;;;;5000890;28;89331;-33
2022/04/04 09:56:31;;;;;;;9.00;6.70;;;5.60;99.90;;;;;;5000462;28;89808;-31
2022/04/04 09:58:59;;;;;;;8.15;6.00;;;5.60;99.90;;;;;;5000378;28;88462;-32
2022/04/04 10:01:26;;;;;;;6.32;5.72;;;5.60;99.90;;;;;;4999531;28;90425;-31
2022/04/04 10:03:55;;;;;;;6.35;5.50;;;5.60;99.90;;;;;;4999744;28;89788;-33
2022/04/04 10:06:22;;;;;;;5.68;5.18;;;5.60;99.90;;;;;;5000407;28;89742;-34
2022/04/04 10:08:54;;;;;;;6.63;5.93;;;5.70;99.90;;;;;;4999973;28;89342;-34
2022/04/04 10:11:21;;;;;;;5.32;4.82;;;5.70;99.90;;;;;;5000937;28;89553;-32
2022/04/04 10:13:47;;;;;;;5.63;5.13;;;5.80;99.90;;;;;;5000791;28;90198;-35
2022/04/04 10:16:13;;;;;;;5.15;4.75;;;5.80;99.90;;;;;;5001588;28;89910;-31
2022/04/04 10:18:43;;;;;;;8.38;4.85;;;5.80;99.90;;;;;;5000537;28;88944;-34
2022/04/04 10:21:10;;;;;;;4.40;4.00;;;5.80;99.90;;;;;;5000505;28;90353;-31
2022/04/04 10:23:38;;;;;;;6.47;5.13;;;5.80;99.90;;;;;;4999447;28;89989;-35
2022/04/04 10:26:06;;;;;;;6.28;5.07;;;5.80;99.90;;;;;;5000505;28;90474;-34
2022/04/04 10:28:34;;;;;;;4.68;4.13;;;5.70;99.90;;;;;;5001353;28;89215;-31
2022/04/04 10:31:20;;;;;;;;;;;5.80;99.90;;;;;;5000662;28;89844;-32
2022/04/04 10:33:48;;;;;;;4.90;4.40;;;5.80;99.90;;;;;;4999443;28;90705;-32
2022/04/04 10:36:24;;;;;;;5.37;3.97;;;5.80;99.90;;;;;;5000008;28;90135;-33
2022/04/04 10:38:54;;;;;;;5.22;4.70;;;5.90;99.90;;;;;;4999895;28;89239;-32
2022/04/04 10:41:28;;;;;;;6.07;4.85;;;5.90;99.90;;;;;;5000354;28;90157;-33
2022/04/04 10:43:55;;;;;;;4.95;4.45;;;5.80;99.90;;;;;;4999617;28;89580;-32
2022/04/04 10:46:23;;;;;;;6.50;5.90;;;5.90;99.90;;;;;;4999829;28;89522;-34
2022/04/04 10:49:03;;;;;;;6.47;4.77;;;6.00;99.90;;;;;;5000326;28;89784;-34
2022/04/04 10:51:31;;;;;;;5.00;4.50;;;6.00;99.90;;;;;;4999614;28;90362;-37
2022/04/04 10:54:04;;;;;;;5.47;4.87;;;6.00;99.90;;;;;;5000150;28;89482;-33
2022/04/04 10:56:47;;;;;;;5.55;4.90;;;6.00;99.90;;;;;;4999559;28;89575;-33
2022/04/04 10:59:15;;;;;;;7.72;5.68;;;6.10;99.90;;;;;;4999448;28;89276;-34
2022/04/04 11:01:55;;;;;;;7.25;6.55;;;6.10;99.90;;;;;;4999243;28;90311;-33
2022/04/04 11:04:30;;;;;;;6.93;5.78;;;6.10;99.90;;;;;;4997033;28;89817;-33
2022/04/04 11:10:06;;;;;;;6.03;5.53;;;6.20;99.90;;;;;;4999981;28;88665;-37
2022/04/04 11:13:04;;;;;;;6.38;5.78;;;6.30;99.90;;;;;;4999622;28;89775;-34
2022/04/04 11:15:55;;;;;;;6.30;5.05;;;6.30;99.90;;;;;;4993597;28;89807;-32
2022/04/04 11:18:24;;;;;;;6.03;5.57;;;6.30;99.90;;;;;;4999791;28;89265;-31
2022/04/04 11:20:59;;;;;;;6.15;5.55;;;6.40;99.90;;;;;;4998899;28;89094;-34
2022/04/04 11:23:33;;;;;;;6.28;5.63;;;6.40;99.90;;;;;;4999675;28;90486;-31
2022/04/04 11:26:19;;;;;;;6.75;4.68;;;6.40;99.90;;;;;;4998403;28;89601;-33
2022/04/04 11:29:10;;;;;;;5.15;4.47;;;6.50;99.90;;;;;;4998446;28;90752;-33
2022/04/04 11:34:36;;;;;;;5.97;4.80;;;6.50;99.90;;;;;;5001281;28;90379;-35
2022/04/04 11:37:14;;;;;;;5.40;4.63;;;6.60;99.90;;;;;;4998932;28;89699;-32
2022/04/04 11:40:03;;;;;;;;;;;6.60;99.90;;;;;;4998956;28;90011;-31
2022/04/04 11:42:39;;;;;;;7.18;5.35;;;6.50;99.90;;;;;;4994184;28;88898;-35
2022/04/04 11:45:05;;;;;;;4.95;4.20;;;6.60;99.90;;;;;;5000012;28;89266;-33
2022/04/04 11:47:57;;;;;;;5.05;4.53;;;6.60;99.90;;;;;;4999081;28;90183;-33
2022/04/04 11:50:28;;;;;;;4.93;3.97;;;6.60;99.90;;;;;;4996108;28;89454;-32
2022/04/04 11:52:59;;;;;;;4.97;3.80;;;6.70;99.90;;;;;;4999017;28;88192;-32
2022/04/04 11:55:48;;;;;;;4.30;3.90;;;6.70;99.90;;;;;;4998464;28;89513;-32
2022/04/04 11:58:37;;;;;;;4.63;4.22;;;6.80;99.90;;;;;;4998757;28;89977;-31
2022/04/04 12:01:06;;;;;;;4.35;2.90;;;6.80;99.90;;;;;;4998056;28;89858;-32
2022/04/04 12:03:32;;;;;;;4.75;4.03;;;6.80;99.90;;;;;;4998741;28;89176;-31
2022/04/04 12:06:05;;;;;;;3.70;3.35;;;6.80;99.90;;;;;;4998234;28;90662;-35
2022/04/04 12:08:31;;;;;;;3.78;3.17;;;6.80;99.90;;;;;;4998537;28;89533;-35
2022/04/04 12:10:57;;;;;;;4.00;3.67;;;6.80;99.90;;;;;;4999306;28;90141;-32
2022/04/04 12:13:23;;;;;;;4.20;3.90;;;6.90;99.90;;;;;;4999040;28;89053;-36
2022/04/04 12:15:51;;;;;;;3.45;3.22;;;6.80;99.90;;;;;;4997230;28;90139;-35
2022/04/04 12:18:27;;;;;;;5.13;3.63;;;6.90;99.90;;;;;;4998200;28;90809;-36
2022/04/04 12:20:58;;;;;;;3.03;2.70;;;6.90;99.90;;;;;;4998746;28;90417;-31
2022/04/04 12:26:13;;;;;;;2.92;2.67;;;7.00;99.90;;;;;;4998573;28;90229;-33
2022/04/04 12:28:49;;;;;;;3.28;2.97;;;6.90;99.90;;;;;;4997136;28;89948;-35
2022/04/04 12:31:22;;;;;;;2.92;2.72;;;7.00;99.90;;;;;;4998474;28;89491;-36
2022/04/04 12:34:06;;;;;;;2.60;2.38;;;7.00;99.90;;;;;;4998865;28;88567;-33
2022/04/04 12:36:40;;;;;;;3.60;2.90;;;7.00;99.90;;;;;;4998560;28;90130;-34
2022/04/04 12:39:08;;;;;;;2.33;2.17;;;7.00;99.90;;;;;;4997763;28;89093;-33
2022/04/04 12:41:50;;;;;;;2.80;2.60;;;7.10;99.90;;;;;;4997669;28;89404;-32
2022/04/04 12:44:24;;;;;;;3.03;2.75;;;7.10;99.90;;;;;;4998313;28;90606;-32
2022/04/04 12:46:50;;;;;;;3.05;2.58;;;7.10;99.90;;;;;;4997906;28;90085;-35
2022/04/04 12:49:20;;;;;;;2.90;2.60;;;7.20;99.90;;;;;;4998470;28;89589;-33
2022/04/04 12:51:58;;;;;;;2.28;2.15;;;7.20;99.90;;;;;;4997591;28;89579;-32
2022/04/04 12:54:35;;;;;;;3.58;2.15;;;7.20;99.90;;;;;;4998839;28;90231;-33
2022/04/04 12:57:07;;;;;;;3.57;1.83;;;7.20;99.90;;;;;;4997853;28;90342;-32
2022/04/04 12:59:49;;;;;;;2.92;2.63;;;7.20;99.90;;;;;;4999060;28;90306;-32
2022/04/04 13:02:15;;;;;;;2.60;2.42;;;7.30;99.90;;;;;;4997513;28;89778;-36
2022/04/04 13:04:42;;;;;;;2.00;1.90;;;7.30;99.90;;;;;;4997821;28;89540;-31